Time;durP1;ratioP1;P1;durP2;ratioP2;P2;SDS_P1;SDS_P2;PMS_P1;PMS_P2;Temp;Humidity;BMP_temperature;BMP_pressure;BME280_temperature;BME280_humidity;BME280_pressure;Samples;Min_cycle;Max_cycle;Signal;HPM_P1;HPM_P2
2022/05/26 00:02:26;;;;;;;5.28;2.27;;;;;;;18.14;100.00;99037.16;1720704;82;21107;-59
2022/05/26 00:06:58;;;;;;;7.08;2.20;;;;;;;18.20;100.00;99032.27;1773516;79;22826;-60
2022/05/26 00:09:25;;;;;;;10.85;2.45;;;;;;;18.13;100.00;99036.14;1736031;82;20991;-60
2022/05/26 00:11:51;;;;;;;4.40;2.33;;;;;;;18.13;100.00;99034.20;1741509;82;21008;-60
2022/05/26 00:14:19;;;;;;;4.83;2.52;;;;;;;18.13;100.00;99032.82;1746925;82;20988;-59
2022/05/26 00:16:46;;;;;;;4.70;2.20;;;;;;;18.10;100.00;99027.19;1737826;82;21059;-61
2022/05/26 00:19:15;;;;;;;6.33;2.42;;;;;;;18.08;100.00;99020.63;1733723;82;20967;-60
2022/05/26 00:21:41;;;;;;;6.67;2.47;;;;;;;18.04;100.00;99012.80;1732169;82;21098;-59
2022/05/26 00:24:08;;;;;;;5.40;2.10;;;;;;;18.04;100.00;99011.99;1731648;82;20999;-60
2022/05/26 00:26:35;;;;;;;3.83;2.10;;;;;;;18.04;100.00;99016.93;1727381;82;22124;-60
2022/05/26 00:29:01;;;;;;;;;;;;;;;18.05;100.00;99011.66;1735293;82;21019;-60
2022/05/26 00:31:28;;;;;;;4.87;1.92;;;;;;;18.05;100.00;99008.91;1734938;82;20401;-60
2022/05/26 00:33:55;;;;;;;4.47;2.20;;;;;;;17.87;100.00;98989.55;1749705;82;21558;-60
2022/05/26 00:36:37;;;;;;;;;;;;;;;17.96;100.00;99011.52;1734297;82;21432;-59
2022/05/26 00:38:49;;;;;;;5.28;2.02;;;;;;;17.94;100.00;99004.96;1735351;82;20154;-60
2022/05/26 00:41:15;;;;;;;;;;;;;;;17.84;100.00;99004.81;1743504;82;21859;-60
2022/05/26 00:43:44;;;;;;;6.03;2.30;;;;;;;17.83;100.00;99005.13;1740327;82;20121;-60
2022/05/26 00:46:19;;;;;;;4.12;2.00;;;;;;;17.75;100.00;99002.69;1724659;82;21530;-59
2022/05/26 00:48:53;;;;;;;5.53;2.00;;;;;;;17.74;100.00;99001.09;1735647;82;21410;-60
2022/05/26 00:51:24;;;;;;;6.00;2.27;;;;;;;17.74;100.00;98994.22;1739984;82;21055;-60
2022/05/26 00:53:54;;;;;;;4.60;1.90;;;;;;;17.74;100.00;98990.66;1742580;81;20956;-60
2022/05/26 00:56:32;;;;;;;7.37;1.72;;;;;;;17.74;100.00;98988.70;1748318;82;21464;-59
2022/05/26 00:59:10;;;;;;;5.45;2.35;;;;;;;17.76;100.00;98991.11;1728945;82;21373;-60
2022/05/26 01:01:38;;;;;;;5.67;1.87;;;;;;;17.76;100.00;98985.60;1672460;84;21054;-60
2022/05/26 01:04:10;;;;;;;7.72;1.85;;;;;;;17.75;100.00;98984.79;1703765;84;21586;-60
2022/05/26 01:06:47;;;;;;;5.00;1.70;;;;;;;17.76;100.00;98993.30;1686221;84;21102;-60
2022/05/26 01:09:14;;;;;;;5.25;1.72;;;;;;;17.79;100.00;98987.67;1692072;84;20982;-60
2022/05/26 01:11:42;;;;;;;6.42;1.98;;;;;;;17.81;100.00;98982.66;1688575;84;21073;-60
2022/05/26 01:14:20;;;;;;;5.25;1.82;;;;;;;17.84;100.00;98977.28;1704263;84;20998;-60
2022/05/26 01:17:09;;;;;;;6.28;1.82;;;;;;;17.87;100.00;98983.48;1685993;84;21086;-61
2022/05/26 01:20:10;;;;;;;6.53;1.95;;;;;;;17.90;100.00;98973.73;1681689;84;20995;-60
2022/05/26 01:23:03;;;;;;;7.72;1.72;;;;;;;17.90;100.00;98981.42;1674185;85;21062;-60
2022/05/26 01:25:58;;;;;;;8.08;1.85;;;;;;;17.91;100.00;98972.59;1677104;85;21051;-60
2022/05/26 01:28:30;;;;;;;8.23;1.65;;;;;;;17.92;100.00;98978.91;1679781;85;20968;-61
2022/05/26 01:31:54;;;;;;;8.03;1.75;;;;;;;17.95;100.00;98972.16;1691905;84;21123;-60
2022/05/26 01:34:50;;;;;;;7.60;1.70;;;;;;;17.95;100.00;98969.97;1681482;85;21024;-60
2022/05/26 01:37:49;;;;;;;9.03;1.62;;;;;;;17.91;100.00;98964.34;1654911;85;21145;-61
2022/05/26 01:40:26;;;;;;;5.65;1.55;;;;;;;17.90;100.00;98962.72;1683447;85;21027;-60
2022/05/26 01:43:00;;;;;;;6.45;1.85;;;;;;;17.89;100.00;98959.16;1678407;85;20992;-61
2022/05/26 01:45:49;;;;;;;6.80;1.60;;;;;;;17.88;100.00;98952.06;1710131;84;21054;-61
2022/05/26 01:48:21;;;;;;;7.35;2.08;;;;;;;17.86;100.00;98955.71;1694114;84;21038;-60
2022/05/26 01:50:59;;;;;;;7.35;1.70;;;;;;;17.83;100.00;98948.70;1688222;84;21117;-60
2022/05/26 01:53:51;;;;;;;5.83;1.67;;;;;;;17.79;100.00;98949.13;1686422;84;21035;-61
2022/05/26 01:56:29;;;;;;;8.13;1.45;;;;;;;17.74;100.00;98950.73;1710711;84;21994;-60
2022/05/26 01:59:09;;;;;;;7.83;1.47;;;;;;;17.68;100.00;98949.31;1680875;85;21424;-61
2022/05/26 02:01:45;;;;;;;5.72;1.50;;;;;;;17.64;100.00;98938.77;1685941;84;21641;-61
2022/05/26 02:04:17;;;;;;;5.15;1.30;;;;;;;17.59;100.00;98934.27;1686660;84;21335;-61
2022/05/26 02:06:50;;;;;;;6.65;1.92;;;;;;;17.52;100.00;98928.47;1711602;83;21061;-60
2022/05/26 02:09:26;;;;;;;10.28;1.90;;;;;;;17.46;100.00;98935.89;1714951;83;21520;-59
2022/05/26 02:11:59;;;;;;;7.20;1.98;;;;;;;17.41;100.00;98930.02;1708148;83;21014;-61
2022/05/26 02:14:41;;;;;;;10.15;2.00;;;;;;;17.37;100.00;98927.13;1716850;83;21033;-61
2022/05/26 02:17:33;;;;;;;7.50;1.85;;;;;;;17.34;100.00;98925.63;1704917;83;21521;-61
2022/05/26 02:20:10;;;;;;;7.95;1.87;;;;;;;17.27;100.00;98930.86;1705037;83;20978;-61
2022/05/26 02:22:49;;;;;;;7.35;1.95;;;;;;;17.23;100.00;98932.09;1713402;83;20978;-60
2022/05/26 02:25:19;;;;;;;4.03;1.87;;;;;;;17.19;100.00;98938.02;1706957;83;21002;-59
2022/05/26 02:27:48;;;;;;;5.05;1.80;;;;;;;17.17;100.00;98932.63;1699203;83;21497;-60
2022/05/26 02:30:14;;;;;;;6.62;2.12;;;;;;;17.14;100.00;98937.42;1699106;83;21489;-60
2022/05/26 02:32:48;;;;;;;;;;;;;;;17.12;100.00;98943.81;1714253;83;21013;-61
2022/05/26 02:35:28;;;;;;;6.08;1.47;;;;;;;17.08;100.00;98942.86;1710191;83;20105;-60
2022/05/26 02:38:03;;;;;;;7.10;2.02;;;;;;;16.86;100.00;98949.49;1698728;83;21505;-59
2022/05/26 02:40:30;;;;;;;5.72;1.90;;;;;;;16.69;100.00;98946.24;1676650;84;21070;-60
2022/05/26 02:43:00;;;;;;;3.42;1.70;;;;;;;16.53;100.00;98948.48;1719281;83;21486;-60
2022/05/26 02:45:56;;;;;;;6.33;1.67;;;;;;;16.44;100.00;98952.62;1674486;84;21058;-60
2022/05/26 02:49:08;;;;;;;4.80;2.00;;;;;;;16.39;100.00;98948.70;1689717;83;21502;-60
2022/05/26 02:52:03;;;;;;;7.05;2.20;;;;;;;16.30;100.00;98944.59;1682353;84;21880;-60
2022/05/26 02:54:48;;;;;;;5.00;2.52;;;;;;;16.16;100.00;98947.30;1707854;83;21064;-61
2022/05/26 02:57:29;;;;;;;8.55;2.25;;;;;;;16.05;100.00;98942.72;1700109;83;21074;-60
2022/05/26 03:00:13;;;;;;;5.45;2.20;;;;;;;15.94;100.00;98938.14;1714448;83;21457;-60
2022/05/26 03:03:06;;;;;;;8.75;2.60;;;;;;;15.87;100.00;98952.93;1674676;83;21045;-59
2022/05/26 03:05:41;;;;;;;8.10;2.58;;;;;;;15.73;100.00;98945.44;1680070;83;21113;-60
2022/05/26 03:08:11;;;;;;;9.98;3.35;;;;;;;15.51;100.00;98945.64;1711408;82;20960;-60
2022/05/26 03:10:38;;;;;;;7.05;3.17;;;;;;;15.31;100.00;98943.48;1717227;82;21111;-60
2022/05/26 03:13:04;;;;;;;;;;;;;;;15.10;100.00;98945.23;1730244;82;21401;-60
2022/05/26 03:15:32;;;;;;;7.17;2.40;;;;;;;14.99;100.00;98946.10;1715501;82;20109;-60
2022/05/26 03:18:01;;;;;;;6.70;2.08;;;;;;;14.88;100.00;98939.30;1712721;82;20976;-60
2022/05/26 03:20:27;;;;;;;5.62;2.05;;;;;;;14.82;100.00;98943.33;1714695;82;21040;-61
2022/05/26 03:22:55;;;;;;;6.42;2.37;;;;;;;14.74;100.00;98942.73;1711011;82;21821;-60
2022/05/26 03:25:21;;;;;;;5.80;2.80;;;;;;;14.62;100.00;98939.81;1715686;82;21563;-60
2022/05/26 03:27:48;;;;;;;8.65;2.95;;;;;;;14.60;100.00;98947.52;1706152;82;21518;-60
2022/05/26 03:30:14;;;;;;;;;;;;;;;14.60;100.00;98946.16;1733921;82;20998;-60
2022/05/26 03:32:45;;;;;;;6.78;2.80;;;;;;;14.61;100.00;98944.48;1710137;81;20098;-60
2022/05/26 03:43:18;;;;;;;7.65;2.47;;;;;;;14.45;100.00;98955.03;1718394;82;21066;-59
2022/05/26 03:45:45;;;;;;;7.40;2.20;;;;;;;14.44;100.00;98957.55;1731481;82;21527;-59
2022/05/26 03:48:12;;;;;;;8.20;2.77;;;;;;;14.42;100.00;98961.15;1716346;82;20975;-60
2022/05/26 03:50:38;;;;;;;8.88;2.58;;;;;;;14.34;100.00;98963.31;1729203;82;21004;-60
2022/05/26 03:53:05;;;;;;;4.28;2.25;;;;;;;14.24;100.00;98966.84;1721022;82;20975;-61
2022/05/26 03:55:31;;;;;;;6.87;2.22;;;;;;;14.16;100.00;98975.25;1725539;82;21150;-60
2022/05/26 03:57:59;;;;;;;5.83;2.10;;;;;;;14.11;100.00;98976.73;1717511;82;21035;-60
2022/05/26 04:00:26;;;;;;;5.50;2.52;;;;;;;14.07;100.00;98979.85;1732309;82;21810;-60
2022/05/26 04:02:52;;;;;;;4.75;2.12;;;;;;;14.05;100.00;98979.37;1730592;82;21031;-60
2022/05/26 04:05:19;;;;;;;;;;;;;;;14.06;100.00;98976.89;1725368;82;21106;-61
2022/05/26 04:07:46;;;;;;;6.85;2.52;;;;;;;14.07;100.00;98981.77;1735754;81;20149;-60
2022/05/26 04:10:13;;;;;;;6.12;3.10;;;;;;;13.98;100.00;98981.73;1723263;82;20991;-60
2022/05/26 04:12:44;;;;;;;7.62;2.50;;;;;;;13.83;100.00;98961.59;1731424;82;21557;-60
2022/05/26 04:15:12;;;;;;;8.40;2.52;;;;;;;13.91;100.00;98986.84;1733500;82;21026;-59
2022/05/26 04:17:40;;;;;;;8.48;2.83;;;;;;;13.95;100.00;98988.65;1742120;82;21524;-61
2022/05/26 04:20:10;;;;;;;7.15;2.70;;;;;;;13.94;100.00;98992.50;1730298;82;21022;-61
2022/05/26 04:22:36;;;;;;;4.75;2.40;;;;;;;13.94;100.00;98991.12;1725679;82;20986;-61
2022/05/26 04:25:04;;;;;;;6.92;2.85;;;;;;;13.99;100.00;98990.20;1751048;82;21494;-61
2022/05/26 04:27:32;;;;;;;7.10;2.67;;;;;;;13.97;100.00;99002.00;1731551;82;21067;-60
2022/05/26 04:29:59;;;;;;;7.47;2.87;;;;;;;13.92;100.00;98999.41;1724949;82;20951;-59
2022/05/26 04:32:26;;;;;;;8.28;3.45;;;;;;;13.92;100.00;98998.05;1732820;82;21028;-60
2022/05/26 04:34:52;;;;;;;10.10;2.80;;;;;;;13.90;100.00;98999.70;1734833;82;20943;-59
2022/05/26 04:37:20;;;;;;;5.25;2.62;;;;;;;13.89;100.00;98995.91;1729223;82;21003;-59
2022/05/26 04:39:47;;;;;;;6.60;2.42;;;;;;;13.89;100.00;99004.11;1734193;82;20963;-60
2022/05/26 04:42:14;;;;;;;9.95;2.80;;;;;;;13.89;100.00;99000.00;1748514;82;21623;-60
2022/05/26 04:44:42;;;;;;;;;;;;;;;13.86;100.00;99000.08;1744677;82;21451;-61
2022/05/26 04:47:08;;;;;;;6.05;2.30;;;;;;;13.85;100.00;99003.14;1734383;82;20104;-61
2022/05/26 04:49:38;;;;;;;8.00;2.30;;;;;;;13.80;100.00;99010.91;1737656;82;21017;-61
2022/05/26 04:52:06;;;;;;;4.83;2.67;;;;;;;13.78;100.00;98998.08;1726913;82;21090;-59
2022/05/26 04:54:38;;;;;;;6.50;2.95;;;;;;;13.74;100.00;99014.07;1730194;82;20939;-58
2022/05/26 04:57:05;;;;;;;7.08;2.60;;;;;;;13.69;100.00;99014.17;1731931;82;21082;-59
2022/05/26 04:59:33;;;;;;;8.90;2.90;;;;;;;13.70;100.00;99017.17;1726598;82;20963;-59
2022/05/26 05:02:00;;;;;;;6.72;2.83;;;;;;;13.74;100.00;99017.62;1729833;82;21581;-59
2022/05/26 05:04:27;;;;;;;7.65;2.75;;;;;;;13.78;100.00;99018.59;1740995;82;20971;-59
2022/05/26 05:06:53;;;;;;;;;;;;;;;13.80;100.00;99023.21;1741822;81;21878;-59
2022/05/26 05:09:20;;;;;;;4.87;2.83;;;;;;;13.86;100.00;99023.88;1746928;82;20095;-56
2022/05/26 05:11:47;;;;;;;6.28;2.80;;;;;;;13.89;100.00;99029.55;1734401;82;21011;-60
2022/05/26 05:14:13;;;;;;;;;;;;;;;13.97;100.00;99019.79;1732626;82;21075;-60
2022/05/26 05:16:44;;;;;;;7.55;2.50;;;;;;;14.07;100.00;99024.19;1726697;82;20113;-59
2022/05/26 05:19:11;;;;;;;4.97;2.30;;;;;;;14.09;100.00;99020.60;1734760;82;20980;-60
2022/05/26 05:21:46;;;;;;;6.08;2.60;;;;;;;14.02;100.00;98997.78;1737828;82;21043;-60
2022/05/26 05:24:24;;;;;;;5.47;2.80;;;;;;;14.23;100.00;99022.15;1748643;82;22033;-60
2022/05/26 05:26:55;;;;;;;6.45;2.90;;;;;;;14.22;100.00;99030.66;1736353;82;21090;-61
2022/05/26 05:29:24;;;;;;;9.60;3.05;;;;;;;14.23;100.00;99030.92;1725586;82;20947;-61
2022/05/26 05:31:55;;;;;;;6.00;2.55;;;;;;;14.27;100.00;99028.62;1729753;82;21090;-63
2022/05/26 05:34:33;;;;;;;6.05;2.50;;;;;;;14.36;100.00;99036.90;1726575;82;20967;-61
2022/05/26 05:37:00;;;;;;;5.95;2.65;;;;;;;14.42;100.00;99046.59;1737285;82;21058;-64
2022/05/26 05:39:26;;;;;;;;;;;;;;;14.38;100.00;99056.58;1743252;82;20997;-62
2022/05/26 05:41:54;;;;;;;4.25;2.52;;;;;;;14.34;100.00;99045.45;1737114;82;20106;-62
2022/05/26 05:44:21;;;;;;;3.47;2.30;;;;;;;14.37;100.00;99052.22;1737807;82;21019;-61
2022/05/26 05:46:53;;;;;;;4.42;1.75;;;;;;;14.41;100.00;99047.73;1748628;82;21023;-63
2022/05/26 05:49:21;;;;;;;4.50;1.40;;;;;;;14.46;100.00;99058.54;1722579;82;21011;-62
2022/05/26 05:51:49;;;;;;;3.67;1.10;;;;;;;14.44;100.00;99061.61;1727321;82;21043;-62
2022/05/26 05:54:15;;;;;;;2.05;1.02;;;;;;;14.45;100.00;99064.57;1728945;82;20998;-67
2022/05/26 05:56:44;;;;;;;3.77;1.15;;;;;;;14.44;100.00;99065.72;1724944;82;21094;-62
2022/05/26 05:59:11;;;;;;;1.67;1.05;;;;;;;14.44;100.00;99067.08;1743187;82;20979;-61
2022/05/26 06:01:37;;;;;;;3.25;1.10;;;;;;;14.42;100.00;99072.05;1728235;82;21058;-64
2022/05/26 06:04:04;;;;;;;3.52;1.07;;;;;;;14.39;100.00;99072.68;1735559;82;21008;-63
2022/05/26 06:06:42;;;;;;;2.20;0.90;;;;;;;14.31;100.00;99073.39;1726301;82;21050;-61
2022/05/26 06:09:13;;;;;;;2.20;0.98;;;;;;;14.30;100.00;99079.19;1726497;80;20962;-61
2022/05/26 06:11:43;;;;;;;4.30;1.00;;;;;;;14.29;100.00;99082.48;1736485;80;21565;-62
2022/05/26 06:14:10;;;;;;;2.35;0.88;;;;;;;14.21;100.00;99075.02;1746723;82;21483;-62
2022/05/26 06:16:37;;;;;;;1.40;0.80;;;;;;;14.21;100.00;99071.47;1746367;82;21055;-61
2022/05/26 06:19:04;;;;;;;;;;;;;;;14.19;100.00;99075.09;1736929;82;21506;-62
2022/05/26 06:21:31;;;;;;;1.07;0.77;;;;;;;14.20;100.00;99072.61;1737364;82;20660;-60
2022/05/26 06:23:58;;;;;;;1.37;0.82;;;;;;;14.14;100.00;99069.17;1731000;82;20991;-60
2022/05/26 06:26:28;;;;;;;2.47;0.90;;;;;;;14.16;100.00;99086.66;1725858;82;21008;-59
2022/05/26 06:37:13;;;;;;;1.27;0.80;;;;;;;14.16;100.00;99088.84;1722108;82;21487;-59
2022/05/26 06:39:38;;;;;;;3.42;0.70;;;;;;;14.18;100.00;99098.91;1734737;82;20963;-59
2022/05/26 06:42:07;;;;;;;1.17;0.60;;;;;;;14.04;100.00;99092.68;1725169;82;21062;-59
2022/05/26 06:44:44;;;;;;;1.12;0.70;;;;;;;14.17;100.00;99123.87;1728345;82;20972;-61
2022/05/26 06:47:16;;;;;;;;;;;;;;;14.08;100.00;99125.16;1738925;82;21016;-60
2022/05/26 06:49:43;;;;;;;1.37;0.93;;;;;;;14.03;100.00;99125.26;1736507;82;20389;-60
2022/05/26 06:52:11;;;;;;;1.75;0.90;;;;;;;14.01;100.00;99127.51;1726725;82;21083;-61
2022/05/26 06:54:40;;;;;;;1.90;0.88;;;;;;;14.07;100.00;99135.84;1726195;82;21083;-61
2022/05/26 06:57:06;;;;;;;2.00;0.93;;;;;;;14.05;100.00;99125.78;1732710;81;21071;-60
2022/05/26 06:59:33;;;;;;;1.45;0.80;;;;;;;14.06;100.00;99126.03;1730276;82;20991;-60
2022/05/26 07:02:00;;;;;;;1.60;1.00;;;;;;;14.05;100.00;99128.52;1734390;82;21050;-60
2022/05/26 07:04:27;;;;;;;3.00;0.93;;;;;;;14.07;100.00;99134.47;1742414;82;21541;-60
2022/05/26 07:06:54;;;;;;;2.00;0.82;;;;;;;14.08;100.00;99132.55;1716995;83;21110;-59
2022/05/26 07:09:22;;;;;;;2.20;0.90;;;;;;;14.04;100.00;99130.18;1727065;82;21078;-59
2022/05/26 07:11:48;;;;;;;9.28;1.30;;;;;;;14.06;100.00;99119.20;1713419;82;21562;-60
2022/05/26 07:14:15;;;;;;;1.85;0.98;;;;;;;14.09;100.00;99129.52;1740110;82;20983;-61
2022/05/26 07:16:44;;;;;;;1.37;0.90;;;;;;;14.09;100.00;99134.18;1751050;82;21039;-59
2022/05/26 07:19:15;;;;;;;1.62;0.95;;;;;;;14.16;100.00;99125.80;1740334;82;20979;-60
2022/05/26 07:21:43;;;;;;;1.67;1.05;;;;;;;14.29;100.00;99124.11;1743048;82;21074;-60
2022/05/26 07:24:10;;;;;;;2.83;1.02;;;;;;;14.35;100.00;99125.08;1728251;82;21775;-60
2022/05/26 07:26:37;;;;;;;2.10;0.98;;;;;;;14.38;100.00;99129.92;1747958;82;21035;-61
2022/05/26 07:29:03;;;;;;;1.98;1.20;;;;;;;14.42;100.00;99126.81;1740824;82;20975;-61
2022/05/26 07:31:30;;;;;;;1.20;0.90;;;;;;;14.50;100.00;99125.81;1724790;82;21015;-62
2022/05/26 07:33:57;;;;;;;2.22;1.00;;;;;;;14.56;100.00;99135.55;1730374;82;21017;-60
2022/05/26 07:42:00;;;;;;;6.28;1.00;;;;;;;14.67;100.00;99125.37;1751661;82;21526;-61
2022/05/26 07:44:27;;;;;;;2.87;1.17;;;;;;;14.80;100.00;99124.50;1738270;82;20975;-61
2022/05/26 07:46:53;;;;;;;;;;;;;;;14.79;100.00;99129.72;1724928;82;21027;-60
2022/05/26 07:49:19;;;;;;;1.85;0.82;;;;;;;14.93;100.00;99135.92;1734374;82;20102;-60
2022/05/26 07:51:46;;;;;;;2.10;1.00;;;;;;;15.26;100.00;99113.66;1737086;82;21027;-60
2022/05/26 07:54:12;;;;;;;;;;;;;;;15.62;100.00;99123.88;1741825;82;20995;-59
2022/05/26 07:56:38;;;;;;;3.10;0.65;;;;;;;15.92;100.00;99111.97;1741197;82;20103;-60
2022/05/26 07:59:06;;;;;;;1.40;0.62;;;;;;;16.21;100.00;99100.35;1748999;82;21045;-60
2022/05/26 08:01:33;;;;;;;1.37;0.85;;;;;;;16.52;100.00;99108.95;1735344;82;21613;-60
2022/05/26 08:04:00;;;;;;;2.08;0.75;;;;;;;16.69;100.00;99086.95;1731497;82;21463;-59
2022/05/26 08:06:26;;;;;;;1.70;0.75;;;;;;;16.73;100.00;99097.54;1727821;82;21014;-61
2022/05/26 08:08:53;;;;;;;;;;;;;;;16.61;100.00;99098.80;1748617;80;21019;-60
2022/05/26 08:11:20;;;;;;;2.70;0.70;;;;;;;16.61;100.00;99112.54;1724783;82;20148;-60
2022/05/26 08:13:47;;;;;;;1.62;0.95;;;;;;;16.67;100.00;99105.73;1737289;82;21014;-60
2022/05/26 08:16:13;;;;;;;4.25;0.80;;;;;;;16.86;100.00;99100.67;1731171;82;21440;-59
2022/05/26 08:18:41;;;;;;;2.45;0.80;;;;;;;16.95;100.00;99109.69;1748457;82;21605;-59
2022/05/26 08:21:13;;;;;;;;;;;;;;;17.14;100.00;99116.99;1732411;82;21011;-59
2022/05/26 08:23:40;;;;;;;2.70;0.68;;;;;;;17.27;100.00;99119.27;1730298;82;20113;-59
2022/05/26 08:26:07;;;;;;;2.58;0.70;;;;;;;17.16;100.00;99114.70;1741550;82;21046;-59
2022/05/26 08:28:33;;;;;;;2.45;0.70;;;;;;;17.08;100.00;99118.29;1733235;82;21058;-59
2022/05/26 08:31:00;;;;;;;1.95;0.88;;;;;;;17.01;100.00;99112.48;1730260;82;21022;-60
2022/05/26 08:33:28;;;;;;;2.47;0.70;;;;;;;17.10;100.00;99120.16;1736273;82;20991;-60
2022/05/26 08:36:04;;;;;;;2.85;0.85;;;;;;;17.30;100.00;99116.67;1739446;82;21030;-60
2022/05/26 08:38:30;;;;;;;1.53;0.63;;;;;;;17.65;100.00;99120.06;1736624;82;21616;-60
2022/05/26 08:40:57;;;;;;;2.67;0.93;;;;;;;17.98;100.00;99118.80;1728495;82;21682;-60
2022/05/26 08:43:28;;;;;;;1.67;0.60;;;;;;;18.01;100.00;99101.61;1727835;82;21047;-60
2022/05/26 08:45:54;;;;;;;3.62;0.72;;;;;;;18.17;100.00;99115.02;1725633;81;21590;-61
2022/05/26 08:48:51;;;;;;;2.05;0.78;;;;;;;18.51;100.00;99099.34;1725953;82;21054;-60
2022/05/26 08:51:41;;;;;;;1.33;0.50;;;;;;;18.88;100.00;99092.80;1725113;82;21078;-60
2022/05/26 08:54:17;;;;;;;3.10;0.50;;;;;;;18.88;100.00;99092.80;1731234;82;21867;-60
2022/05/26 08:56:44;;;;;;;2.65;0.50;;;;;;;19.11;100.00;99107.76;1711608;82;21457;-62
2022/05/26 08:59:11;;;;;;;4.03;0.50;;;;;;;19.36;100.00;99098.35;1730421;82;20983;-61
2022/05/26 09:01:38;;;;;;;5.97;0.60;;;;;;;19.63;100.00;99094.67;1733929;82;21086;-60
2022/05/26 09:04:05;;;;;;;3.30;0.50;;;;;;;19.77;100.00;99103.39;1735738;82;20951;-61
2022/05/26 09:12:55;;;;;;;3.37;0.50;;;;;;;19.70;100.00;99102.61;1743049;82;21050;-60
2022/05/26 09:14:33;;;;;;;2.98;0.65;;;;;;;19.29;100.00;99110.54;1751793;82;20386;-59
2022/05/26 09:17:12;;;;;;;3.08;0.70;;;;;;;19.09;100.00;99102.36;1726592;82;21058;-60
2022/05/26 09:19:50;;;;;;;2.05;0.60;;;;;;;19.20;100.00;99104.30;1723473;82;21475;-61
2022/05/26 09:22:33;;;;;;;1.77;0.62;;;;;;;19.32;100.00;99118.13;1742290;82;21093;-61
2022/05/26 09:25:01;;;;;;;1.52;0.68;;;;;;;19.19;100.00;99104.09;1726332;82;20979;-60
2022/05/26 09:27:36;;;;;;;3.87;0.60;;;;;;;19.05;100.00;99117.41;1726375;82;20999;-60
2022/05/26 09:30:23;;;;;;;2.33;0.40;;;;;;;19.20;100.00;99099.39;1735061;82;21289;-62
2022/05/26 09:32:50;;;;;;;1.82;0.50;;;;;;;19.41;100.00;99109.78;1667471;84;20998;-60
2022/05/26 09:35:25;;;;;;;2.50;0.60;;;;;;;19.42;100.00;99118.27;1739298;82;21030;-60
2022/05/26 09:37:56;;;;;;;1.50;0.40;;;;;;;19.45;100.00;99109.29;1740298;82;21007;-60
2022/05/26 09:40:31;;;;;;;4.53;0.68;;;;;;;19.34;100.00;99106.75;1736246;82;20979;-60
2022/05/26 09:43:17;;;;;;;1.60;0.65;;;;;;;19.31;100.00;99114.31;1733936;82;21507;-59
2022/05/26 09:45:54;;;;;;;3.42;0.42;;;;;;;19.26;100.00;99108.47;1726441;82;21098;-61
2022/05/26 09:48:30;;;;;;;1.22;0.40;;;;;;;19.39;100.00;99110.08;1723978;82;21023;-61
2022/05/26 09:51:22;;;;;;;3.67;0.62;;;;;;;19.41;100.00;99113.08;1729228;82;21063;-60
2022/05/26 09:53:51;;;;;;;2.67;0.47;;;;;;;19.27;100.00;99107.30;1735675;82;21047;-61
2022/05/26 09:56:30;;;;;;;5.08;0.70;;;;;;;19.23;100.00;99111.11;1725052;82;21074;-62
2022/05/26 09:58:57;;;;;;;2.05;0.40;;;;;;;19.30;100.00;99112.73;1735132;82;20991;-59
2022/05/26 10:01:29;;;;;;;2.70;0.50;;;;;;;19.42;100.00;99108.60;1726932;82;21100;-59
2022/05/26 10:04:23;;;;;;;2.83;0.40;;;;;;;19.51;100.00;99105.74;1740467;82;21566;-61
2022/05/26 10:07:12;;;;;;;1.87;0.50;;;;;;;19.56;100.00;99093.87;1720375;83;21127;-61
2022/05/26 10:10:04;;;;;;;2.05;0.55;;;;;;;19.61;100.00;99110.22;1711437;82;21095;-61
2022/05/26 10:12:41;;;;;;;3.45;0.60;;;;;;;19.58;100.00;99098.49;1722544;82;22228;-62
2022/05/26 10:15:47;;;;;;;4.00;0.50;;;;;;;19.55;100.00;99112.19;1723065;82;21043;-59
2022/05/26 10:18:46;;;;;;;3.12;0.42;;;;;;;19.62;100.00;99111.84;1724167;82;21070;-61
2022/05/26 10:21:36;;;;;;;3.42;0.70;;;;;;;19.73;100.00;99107.42;1662897;83;21714;-60
2022/05/26 10:24:14;;;;;;;2.60;0.40;;;;;;;19.87;100.00;99114.77;1726470;82;21083;-61
2022/05/26 10:27:12;;;;;;;2.77;0.47;;;;;;;19.90;100.00;99126.30;1656321;86;21043;-62
2022/05/26 10:30:05;;;;;;;3.80;0.50;;;;;;;19.76;100.00;99112.86;1729532;82;20987;-61
2022/05/26 10:33:25;;;;;;;2.02;0.65;;;;;;;19.61;100.00;99125.98;1726088;82;20975;-61
2022/05/26 10:36:16;;;;;;;4.58;0.50;;;;;;;19.56;100.00;99120.10;1718107;82;21059;-61
2022/05/26 10:39:04;;;;;;;2.55;0.53;;;;;;;19.70;100.00;99119.74;1732341;82;21522;-62
2022/05/26 10:41:40;;;;;;;;;;;;;;;19.82;100.00;99122.50;1721011;82;21494;-62
2022/05/26 10:44:30;;;;;;;7.22;0.60;;;;;;;19.75;100.00;99114.00;1714894;82;20442;-62
2022/05/26 10:47:21;;;;;;;1.98;0.50;;;;;;;19.52;100.00;99131.60;1713629;82;21051;-61
2022/05/26 10:49:55;;;;;;;2.20;0.60;;;;;;;19.48;100.00;99129.90;1718215;82;21561;-62
2022/05/26 10:52:29;;;;;;;6.92;0.60;;;;;;;19.46;100.00;99137.70;1743166;82;21598;-61
2022/05/26 10:55:13;;;;;;;3.45;0.50;;;;;;;19.50;100.00;99138.63;1729259;82;21569;-60
2022/05/26 10:57:58;;;;;;;3.22;0.70;;;;;;;19.65;100.00;99129.66;1717669;82;21004;-61
2022/05/26 11:00:28;;;;;;;3.47;0.60;;;;;;;19.84;100.00;99119.61;1726182;82;20987;-61
2022/05/26 11:03:16;;;;;;;2.15;0.60;;;;;;;20.09;100.00;99125.89;1724063;82;21467;-60
2022/05/26 11:05:50;;;;;;;5.28;0.60;;;;;;;20.32;96.22;99122.08;1714317;82;21091;-60
2022/05/26 11:08:31;;;;;;;5.08;0.93;;;;;;;20.44;100.00;99119.25;1722180;82;21067;-60
2022/05/26 11:11:19;;;;;;;3.65;0.50;;;;;;;20.53;88.09;99126.83;1723957;82;21067;-60
2022/05/26 11:14:03;;;;;;;2.55;0.70;;;;;;;20.44;89.63;99126.77;1725963;82;21589;-60
2022/05/26 11:19:49;;;;;;;3.87;0.55;;;;;;;20.55;100.00;99136.95;1720448;82;21018;-58
2022/05/26 11:22:16;;;;;;;3.20;0.50;;;;;;;20.72;100.00;99124.79;1735980;82;20967;-59
2022/05/26 11:24:49;;;;;;;2.98;0.70;;;;;;;20.94;100.00;99137.24;1742887;81;21494;-60
2022/05/26 11:27:30;;;;;;;4.33;0.80;;;;;;;21.04;100.00;99136.72;1746180;82;21078;-59
2022/05/26 11:30:04;;;;;;;3.35;0.60;;;;;;;21.07;100.00;99131.85;1729276;82;21487;-58
2022/05/26 11:38:35;;;;;;;3.70;0.50;;;;;;;20.80;94.61;99137.06;1751147;82;20928;-59
2022/05/26 11:41:06;;;;;;;2.20;0.50;;;;;;;20.88;98.46;99139.45;1739320;82;21687;-60
2022/05/26 11:43:43;;;;;;;5.15;0.88;;;;;;;21.02;93.46;99148.70;1722902;82;21412;-63
2022/05/26 11:46:11;;;;;;;3.22;0.72;;;;;;;20.98;93.14;99138.11;1739798;82;21043;-61
2022/05/26 11:48:42;;;;;;;1.65;0.70;;;;;;;20.92;92.74;99141.73;1731839;82;21050;-61
2022/05/26 11:51:31;;;;;;;3.02;0.70;;;;;;;20.80;88.12;99147.32;1735095;82;21499;-61
2022/05/26 11:53:59;;;;;;;4.12;0.68;;;;;;;20.66;92.65;99153.27;1734612;80;20972;-60
2022/05/26 11:56:34;;;;;;;2.85;0.80;;;;;;;20.75;99.13;99135.14;1732101;82;21039;-59
2022/05/26 11:59:26;;;;;;;2.85;0.72;;;;;;;20.90;95.25;99144.64;1727422;82;21051;-61
2022/05/26 12:02:09;;;;;;;5.50;0.65;;;;;;;20.97;87.64;99153.13;1733451;82;21058;-61
2022/05/26 12:04:43;;;;;;;3.95;1.10;;;;;;;20.98;90.01;99148.61;1743572;82;21051;-59
2022/05/26 12:07:23;;;;;;;2.58;0.53;;;;;;;21.04;86.13;99150.55;1742271;82;21161;-62
2022/05/26 12:09:57;;;;;;;2.33;0.70;;;;;;;21.11;90.40;99157.12;1745517;82;21590;-60
2022/05/26 12:12:30;;;;;;;4.08;0.70;;;;;;;21.27;87.69;99157.92;1731186;82;21461;-62
2022/05/26 12:15:09;;;;;;;4.37;1.05;;;;;;;21.27;77.66;99159.88;1733854;82;20983;-60
2022/05/26 12:17:53;;;;;;;2.42;0.72;;;;;;;21.01;78.37;99160.34;1723335;82;20948;-60
2022/05/26 12:23:21;;;;;;;2.12;0.80;;;;;;;20.80;86.53;99155.04;1785632;79;22701;-60
2022/05/26 12:25:48;;;;;;;3.20;0.50;;;;;;;20.69;82.60;99155.92;1740962;81;21483;-61
2022/05/26 12:28:27;;;;;;;4.10;0.82;;;;;;;20.53;79.07;99167.49;1712530;82;21007;-61
2022/05/26 12:31:00;;;;;;;2.35;0.78;;;;;;;20.43;85.18;99166.61;1716117;83;21054;-61
2022/05/26 12:33:47;;;;;;;2.00;0.70;;;;;;;20.42;94.04;99157.51;1725813;83;21018;-61
2022/05/26 12:36:33;;;;;;;4.65;0.80;;;;;;;20.49;87.58;99163.81;1723946;82;21142;-62
2022/05/26 12:39:34;;;;;;;3.55;0.68;;;;;;;20.55;88.39;99155.49;1717647;82;21475;-63
2022/05/26 12:42:18;;;;;;;3.60;0.60;;;;;;;20.68;92.27;99152.35;1719282;82;21027;-62